RYR363C LEMI-EGHH
Flight info
| Callsign | RYR363C |
|---|---|
| Flight time | N/A |
| Altitude | 36000 |
| Route | ALT N851 MITOS N608 COMPI Y90 USKAR DCT MOPAS DCT GIROM DCT AGN DCT SECHE DCT UVELI DCT CNA DCT MANAK UY110 ORIST Y110 THRED |
| Aircraft | B38M/M-SDE1FGHILORVWXY/HB1 |
Departure
| Time | N/A |
|---|---|
| Airport | Region of Murcia International Airport (LEMI) |
Arrival
| Time | 2026-04-30 13:51 |
|---|---|
| Airport | Bournemouth Airport (EGHH) |
| Time | Latitude | Longitude | Altitude | Speed | Heading |
|---|---|---|---|---|---|
| 2026-04-30 12:36 | 43.13835 | 0.95713 | 36096 ft | 443 kts | 350° |
| 2026-04-30 12:36 | 43.19981 | 0.95030 | 36088 ft | 443 kts | 349° |
| 2026-04-30 12:37 | 43.26126 | 0.94346 | 36096 ft | 444 kts | 350° |
| 2026-04-30 12:37 | 43.31243 | 0.93775 | 36096 ft | 444 kts | 350° |
| 2026-04-30 12:38 | 43.37399 | 0.93087 | 36092 ft | 444 kts | 350° |
| 2026-04-30 12:38 | 43.43564 | 0.92396 | 36105 ft | 444 kts | 350° |
| 2026-04-30 12:39 | 43.49740 | 0.91703 | 36093 ft | 446 kts | 350° |
| 2026-04-30 12:39 | 43.55931 | 0.91007 | 36082 ft | 446 kts | 350° |
| 2026-04-30 12:40 | 43.62118 | 0.90310 | 36089 ft | 446 kts | 350° |
| 2026-04-30 12:40 | 43.68312 | 0.89610 | 36091 ft | 447 kts | 351° |
| 2026-04-30 12:41 | 43.74515 | 0.88908 | 36094 ft | 447 kts | 351° |
| 2026-04-30 12:41 | 43.80727 | 0.88204 | 36092 ft | 448 kts | 351° |
| 2026-04-30 12:42 | 43.86932 | 0.87480 | 36089 ft | 448 kts | 348° |
| 2026-04-30 12:42 | 43.89905 | 0.86396 | 36088 ft | 437 kts | 332° |
| 2026-04-30 12:42 | 43.92677 | 0.84662 | 36100 ft | 439 kts | 332° |
| 2026-04-30 12:43 | 43.98242 | 0.81187 | 36110 ft | 439 kts | 331° |
| 2026-04-30 12:43 | 44.03781 | 0.77630 | 36121 ft | 439 kts | 332° |
| 2026-04-30 12:44 | 44.09358 | 0.74022 | 36125 ft | 444 kts | 332° |
| 2026-04-30 12:44 | 44.14959 | 0.70391 | 36130 ft | 444 kts | 331° |
| 2026-04-30 12:45 | 44.20548 | 0.66759 | 36133 ft | 444 kts | 331° |
| 2026-04-30 12:45 | 44.26116 | 0.63134 | 36130 ft | 446 kts | 332° |
| 2026-04-30 12:46 | 44.31741 | 0.59463 | 36100 ft | 447 kts | 332° |
| 2026-04-30 12:46 | 44.37369 | 0.55783 | 36097 ft | 446 kts | 332° |
| 2026-04-30 12:47 | 44.42993 | 0.52097 | 36097 ft | 446 kts | 332° |
| 2026-04-30 12:47 | 44.48630 | 0.48364 | 36101 ft | 449 kts | 332° |
| 2026-04-30 12:48 | 44.54270 | 0.44624 | 36101 ft | 449 kts | 332° |
| 2026-04-30 12:48 | 44.59922 | 0.40867 | 36111 ft | 449 kts | 332° |
| 2026-04-30 12:49 | 44.65559 | 0.37113 | 36121 ft | 449 kts | 332° |
| 2026-04-30 12:49 | 44.71203 | 0.33346 | 36107 ft | 449 kts | 332° |
| 2026-04-30 12:50 | 44.76836 | 0.29577 | 36127 ft | 449 kts | 332° |
| 2026-04-30 12:50 | 44.82478 | 0.25795 | 36111 ft | 449 kts | 332° |
| 2026-04-30 12:51 | 44.88112 | 0.22009 | 36104 ft | 449 kts | 332° |
| 2026-04-30 12:51 | 44.93743 | 0.18218 | 36096 ft | 449 kts | 332° |
| 2026-04-30 12:52 | 44.99374 | 0.14419 | 36082 ft | 449 kts | 332° |
| 2026-04-30 12:52 | 45.05012 | 0.10605 | 36099 ft | 450 kts | 333° |
| 2026-04-30 12:53 | 45.10654 | 0.06780 | 36098 ft | 449 kts | 333° |
| 2026-04-30 12:53 | 45.16297 | 0.02946 | 36087 ft | 449 kts | 333° |
| 2026-04-30 12:54 | 45.21937 | -0.00894 | 36085 ft | 451 kts | 333° |
| 2026-04-30 12:54 | 45.27602 | -0.04760 | 36076 ft | 452 kts | 333° |
| 2026-04-30 12:55 | 45.33258 | -0.08629 | 36101 ft | 452 kts | 333° |
| 2026-04-30 12:55 | 45.38920 | -0.12510 | 36071 ft | 451 kts | 333° |
| 2026-04-30 12:56 | 45.44591 | -0.16406 | 36114 ft | 453 kts | 333° |
| 2026-04-30 12:56 | 45.50260 | -0.20310 | 36097 ft | 453 kts | 333° |
| 2026-04-30 12:57 | 45.55935 | -0.24227 | 36103 ft | 453 kts | 333° |
| 2026-04-30 12:57 | 45.61613 | -0.28153 | 36100 ft | 454 kts | 334° |
| 2026-04-30 12:58 | 45.67147 | -0.32500 | 36088 ft | 453 kts | 320° |
| 2026-04-30 12:58 | 45.72101 | -0.38100 | 36083 ft | 454 kts | 322° |
| 2026-04-30 12:59 | 45.77080 | -0.43694 | 36104 ft | 455 kts | 321° |
| 2026-04-30 12:59 | 45.82018 | -0.49276 | 36073 ft | 456 kts | 321° |
| 2026-04-30 13:00 | 45.87003 | -0.54925 | 36080 ft | 457 kts | 321° |
| 2026-04-30 13:00 | 45.91978 | -0.60576 | 36091 ft | 457 kts | 321° |
| 2026-04-30 13:01 | 45.96957 | -0.66246 | 36076 ft | 456 kts | 321° |
| 2026-04-30 13:01 | 46.01936 | -0.71928 | 36085 ft | 458 kts | 321° |
| 2026-04-30 13:02 | 46.06923 | -0.77633 | 36072 ft | 458 kts | 321° |
| 2026-04-30 13:02 | 46.11910 | -0.83351 | 36071 ft | 458 kts | 321° |
| 2026-04-30 13:03 | 46.16886 | -0.89071 | 36068 ft | 458 kts | 321° |
| 2026-04-30 13:03 | 46.21871 | -0.94814 | 36081 ft | 458 kts | 321° |
| 2026-04-30 13:04 | 46.26847 | -1.00563 | 36093 ft | 458 kts | 321° |
| 2026-04-30 13:04 | 46.31821 | -1.06322 | 36050 ft | 457 kts | 321° |
| 2026-04-30 13:05 | 46.36788 | -1.12087 | 36083 ft | 459 kts | 321° |
| 2026-04-30 13:06 | 46.44227 | -1.20747 | 36098 ft | 458 kts | 321° |
| 2026-04-30 13:06 | 46.49187 | -1.26539 | 36039 ft | 457 kts | 321° |
| 2026-04-30 13:07 | 46.54146 | -1.32343 | 36085 ft | 458 kts | 321° |
| 2026-04-30 13:07 | 46.59112 | -1.38145 | 36072 ft | 458 kts | 323° |
| 2026-04-30 13:07 | 46.61854 | -1.40449 | 36082 ft | 456 kts | 336° |
| 2026-04-30 13:08 | 46.64723 | -1.42447 | 36052 ft | 458 kts | 334° |
| 2026-04-30 13:08 | 46.70439 | -1.46544 | 36086 ft | 458 kts | 334° |
| 2026-04-30 13:09 | 46.76127 | -1.50586 | 36066 ft | 458 kts | 334° |
| 2026-04-30 13:09 | 46.81887 | -1.54686 | 36060 ft | 458 kts | 334° |
| 2026-04-30 13:10 | 46.87768 | -1.58140 | 36050 ft | 455 kts | 353° |
| 2026-04-30 13:10 | 46.94024 | -1.58973 | 35993 ft | 455 kts | 356° |
| 2026-04-30 13:11 | 47.00342 | -1.59681 | 36061 ft | 456 kts | 356° |
| 2026-04-30 13:11 | 47.06674 | -1.60334 | 36065 ft | 455 kts | 356° |
| 2026-04-30 13:12 | 47.12986 | -1.60980 | 36044 ft | 454 kts | 357° |
| 2026-04-30 13:12 | 47.19210 | -1.61750 | 36075 ft | 456 kts | 355° |
| 2026-04-30 13:13 | 47.28664 | -1.63003 | 36058 ft | 455 kts | 355° |
| 2026-04-30 13:14 | 47.38114 | -1.64298 | 36039 ft | 455 kts | 355° |
| 2026-04-30 13:14 | 47.47505 | -1.65631 | 36046 ft | 454 kts | 355° |
| 2026-04-30 13:15 | 47.56939 | -1.66974 | 36044 ft | 454 kts | 355° |
| 2026-04-30 13:16 | 47.63228 | -1.67872 | 36046 ft | 455 kts | 355° |
| 2026-04-30 13:16 | 47.69525 | -1.68773 | 36047 ft | 455 kts | 355° |
| 2026-04-30 13:17 | 47.79039 | -1.70139 | 36049 ft | 455 kts | 355° |
| 2026-04-30 13:18 | 47.88444 | -1.71494 | 36068 ft | 455 kts | 355° |
| 2026-04-30 13:18 | 47.97893 | -1.72860 | 36076 ft | 455 kts | 355° |
| 2026-04-30 13:19 | 48.04190 | -1.73773 | 36075 ft | 455 kts | 355° |
| 2026-04-30 13:19 | 48.10507 | -1.74056 | 36084 ft | 454 kts | 1° |
| 2026-04-30 13:20 | 48.16833 | -1.74099 | 36074 ft | 455 kts | 0° |
| 2026-04-30 13:20 | 48.23160 | -1.74186 | 36064 ft | 455 kts | 0° |
| 2026-04-30 13:21 | 48.29502 | -1.74280 | 36065 ft | 456 kts | 0° |
| 2026-04-30 13:22 | 48.39019 | -1.74421 | 36059 ft | 456 kts | 0° |
| 2026-04-30 13:22 | 48.48534 | -1.74561 | 36058 ft | 456 kts | 0° |
| 2026-04-30 13:23 | 48.58054 | -1.74703 | 36061 ft | 456 kts | 0° |
| 2026-04-30 13:24 | 48.64355 | -1.74796 | 35512 ft | 449 kts | 1° |
| 2026-04-30 13:24 | 48.70589 | -1.74889 | 34409 ft | 446 kts | 1° |
| 2026-04-30 13:25 | 48.76770 | -1.74983 | 33350 ft | 442 kts | 1° |
| 2026-04-30 13:25 | 48.82873 | -1.75076 | 32363 ft | 436 kts | 1° |
| 2026-04-30 13:26 | 48.91873 | -1.75131 | 30921 ft | 427 kts | 3° |
| 2026-04-30 13:26 | 48.97783 | -1.74880 | 29979 ft | 422 kts | 3° |
| 2026-04-30 13:27 | 49.03603 | -1.74661 | 29033 ft | 415 kts | 3° |
| 2026-04-30 13:28 | 49.11188 | -1.74378 | 27884 ft | 405 kts | 3° |
| 2026-04-30 13:28 | 49.16768 | -1.74171 | 27024 ft | 399 kts | 3° |
| 2026-04-30 13:28 | 49.19534 | -1.74068 | 26622 ft | 396 kts | 3° |
| 2026-04-30 13:29 | 49.25016 | -1.73863 | 25805 ft | 391 kts | 3° |
| 2026-04-30 13:29 | 49.30431 | -1.73660 | 24996 ft | 388 kts | 4° |
| 2026-04-30 13:30 | 49.38480 | -1.73358 | 23815 ft | 384 kts | 4° |
| 2026-04-30 13:31 | 49.43807 | -1.73158 | 22948 ft | 382 kts | 4° |
| 2026-04-30 13:31 | 49.51720 | -1.72859 | 21762 ft | 376 kts | 5° |
| 2026-04-30 13:32 | 49.56921 | -1.72663 | 21006 ft | 372 kts | 5° |
| 2026-04-30 13:32 | 49.62077 | -1.73197 | 20212 ft | 375 kts | 351° |
| 2026-04-30 13:33 | 49.67161 | -1.74739 | 19484 ft | 371 kts | 352° |
| 2026-04-30 13:33 | 49.72217 | -1.76238 | 18728 ft | 369 kts | 352° |
| 2026-04-30 13:34 | 49.74742 | -1.76986 | 18331 ft | 369 kts | 352° |
| 2026-04-30 13:34 | 49.82269 | -1.79217 | 17134 ft | 365 kts | 352° |
| 2026-04-30 13:35 | 49.84754 | -1.79956 | 16758 ft | 363 kts | 352° |
| 2026-04-30 13:35 | 49.89652 | -1.81412 | 16014 ft | 360 kts | 352° |
| 2026-04-30 13:36 | 49.94544 | -1.82871 | 15288 ft | 357 kts | 351° |
| 2026-04-30 13:36 | 49.96977 | -1.83596 | 14901 ft | 355 kts | 351° |
| 2026-04-30 13:36 | 50.01738 | -1.84333 | 14124 ft | 332 kts | 10° |
| 2026-04-30 13:37 | 50.04002 | -1.83982 | 13788 ft | 321 kts | 8° |
| 2026-04-30 13:37 | 50.08385 | -1.83377 | 13116 ft | 314 kts | 8° |
| 2026-04-30 13:38 | 50.12726 | -1.82787 | 12433 ft | 311 kts | 8° |
| 2026-04-30 13:38 | 50.14849 | -1.82283 | 12085 ft | 307 kts | 19° |
| 2026-04-30 13:38 | 50.18914 | -1.80409 | 11432 ft | 303 kts | 21° |
| 2026-04-30 13:39 | 50.22947 | -1.78580 | 10815 ft | 300 kts | 20° |
| 2026-04-30 13:39 | 50.26949 | -1.76775 | 10201 ft | 298 kts | 20° |
| 2026-04-30 13:40 | 50.28932 | -1.75880 | 9893 ft | 296 kts | 19° |
| 2026-04-30 13:40 | 50.30905 | -1.74989 | 9554 ft | 295 kts | 20° |
| 2026-04-30 13:40 | 50.32876 | -1.74099 | 9236 ft | 294 kts | 20° |
| 2026-04-30 13:40 | 50.34830 | -1.73215 | 8931 ft | 292 kts | 19° |
| 2026-04-30 13:41 | 50.36784 | -1.72329 | 8609 ft | 291 kts | 19° |
| 2026-04-30 13:41 | 50.38721 | -1.71453 | 8296 ft | 289 kts | 19° |
| 2026-04-30 13:41 | 50.40652 | -1.70578 | 7984 ft | 288 kts | 19° |
| 2026-04-30 13:41 | 50.42576 | -1.69741 | 7685 ft | 287 kts | 13° |
| 2026-04-30 13:42 | 50.44567 | -1.69814 | 7473 ft | 287 kts | 345° |
| 2026-04-30 13:42 | 50.46302 | -1.71198 | 7433 ft | 276 kts | 323° |
| 2026-04-30 13:42 | 50.49186 | -1.74834 | 7174 ft | 260 kts | 320° |
| 2026-04-30 13:43 | 50.50576 | -1.76613 | 6956 ft | 256 kts | 320° |
| 2026-04-30 13:43 | 50.51966 | -1.78401 | 6620 ft | 258 kts | 320° |
| 2026-04-30 13:43 | 50.53340 | -1.80173 | 6380 ft | 255 kts | 320° |
| 2026-04-30 13:43 | 50.54703 | -1.81936 | 6178 ft | 251 kts | 320° |
| 2026-04-30 13:44 | 50.56051 | -1.83683 | 5834 ft | 254 kts | 320° |
| 2026-04-30 13:44 | 50.57425 | -1.85477 | 5474 ft | 258 kts | 320° |
| 2026-04-30 13:44 | 50.58819 | -1.87286 | 5151 ft | 260 kts | 320° |
| 2026-04-30 13:44 | 50.60221 | -1.89097 | 4840 ft | 260 kts | 320° |
| 2026-04-30 13:45 | 50.62936 | -1.92660 | 4187 ft | 249 kts | 320° |
| 2026-04-30 13:45 | 50.64243 | -1.94409 | 3888 ft | 243 kts | 320° |
| 2026-04-30 13:45 | 50.65515 | -1.96120 | 3595 ft | 237 kts | 320° |
| 2026-04-30 13:46 | 50.66754 | -1.97805 | 3328 ft | 233 kts | 320° |
| 2026-04-30 13:46 | 50.68047 | -1.99271 | 3046 ft | 227 kts | 335° |
| 2026-04-30 13:46 | 50.69451 | -2.00325 | 2773 ft | 217 kts | 340° |
| 2026-04-30 13:46 | 50.70752 | -2.01272 | 2512 ft | 197 kts | 340° |
| 2026-04-30 13:47 | 50.71982 | -2.01731 | 2213 ft | 173 kts | 16° |
| 2026-04-30 13:47 | 50.73019 | -2.01121 | 2072 ft | 152 kts | 39° |
| 2026-04-30 13:47 | 50.73922 | -2.00307 | 1957 ft | 150 kts | 40° |
| 2026-04-30 13:47 | 50.74820 | -1.99451 | 1852 ft | 149 kts | 44° |
| 2026-04-30 13:48 | 50.75467 | -1.98289 | 1632 ft | 136 kts | 68° |
| 2026-04-30 13:48 | 50.75843 | -1.96954 | 1504 ft | 130 kts | 78° |
| 2026-04-30 13:48 | 50.76106 | -1.95565 | 1343 ft | 138 kts | 79° |
| 2026-04-30 13:48 | 50.76364 | -1.94110 | 1166 ft | 135 kts | 81° |
| 2026-04-30 13:49 | 50.76599 | -1.92674 | 1003 ft | 132 kts | 80° |
| 2026-04-30 13:49 | 50.76840 | -1.91295 | 800 ft | 131 kts | 81° |
| 2026-04-30 13:49 | 50.77061 | -1.89935 | 680 ft | 127 kts | 79° |
| 2026-04-30 13:49 | 50.77282 | -1.88535 | 539 ft | 135 kts | 78° |
| 2026-04-30 13:50 | 50.77533 | -1.87123 | 339 ft | 132 kts | 80° |
| 2026-04-30 13:50 | 50.77993 | -1.84427 | 47 ft | 116 kts | 80° |
| 2026-04-30 13:50 | 50.78126 | -1.83542 | 48 ft | 50 kts | 76° |
| 2026-04-30 13:51 | 50.78186 | -1.83168 | 46 ft | 24 kts | 76° |
| 2026-04-30 13:51 | 50.78176 | -1.83043 | 45 ft | 9 kts | 162° |
| 2026-04-30 13:51 | 50.78121 | -1.83098 | 43 ft | 12 kts | 239° |
| 2026-04-30 13:51 | 50.78068 | -1.83220 | 45 ft | 11 kts | 239° |
| 2026-04-30 13:52 | 50.78027 | -1.83338 | 45 ft | 14 kts | 243° |
| 2026-04-30 13:52 | 50.77993 | -1.83432 | 43 ft | 9 kts | 231° |
| 2026-04-30 13:52 | 50.77935 | -1.83492 | 44 ft | 9 kts | 185° |
| 2026-04-30 13:52 | 50.77862 | -1.83478 | 44 ft | 12 kts | 173° |
| 2026-04-30 13:53 | 50.77791 | -1.83468 | 45 ft | 10 kts | 175° |
| 2026-04-30 13:53 | 50.77766 | -1.83421 | 45 ft | 5 kts | 94° |
| 2026-04-30 13:53 | 50.77767 | -1.83377 | 45 ft | 0 kts | 87° |